createdAt,value
2019-06-27T00:01:56.424Z,10.47
2019-06-27T00:04:25.841Z,9.33
2019-06-27T00:06:55.166Z,9.30
2019-06-27T00:09:24.507Z,9.47
2019-06-27T00:11:54.216Z,9.60
2019-06-27T00:14:23.613Z,8.67
2019-06-27T00:16:52.947Z,9.20
2019-06-27T00:19:22.262Z,10.00
2019-06-27T00:21:51.550Z,9.80
2019-06-27T00:24:20.884Z,9.63
2019-06-27T00:26:57.114Z,9.67
2019-06-27T00:29:21.370Z,8.97
2019-06-27T00:31:50.666Z,9.50
2019-06-27T00:34:20.038Z,10.03
2019-06-27T00:36:49.428Z,10.10
2019-06-27T00:39:18.846Z,9.47
2019-06-27T00:41:48.291Z,10.33
2019-06-27T00:44:17.647Z,10.23
2019-06-27T00:46:46.971Z,9.93
2019-06-27T00:49:16.355Z,9.77
2019-06-27T00:51:45.734Z,9.17
2019-06-27T00:54:15.026Z,9.37
2019-06-27T00:56:44.362Z,9.90
2019-06-27T00:59:13.752Z,9.87
2019-06-27T01:01:43.114Z,9.70
2019-06-27T01:04:12.488Z,10.03
2019-06-27T01:06:41.858Z,10.20
2019-06-27T01:09:11.277Z,10.13
2019-06-27T01:11:40.613Z,9.93
2019-06-27T01:14:09.920Z,9.70
2019-06-27T01:16:39.342Z,10.10
2019-06-27T01:19:08.754Z,10.03
2019-06-27T01:21:38.078Z,10.10
2019-06-27T01:24:07.455Z,9.40
2019-06-27T01:26:36.795Z,10.03
2019-06-27T01:29:06.102Z,9.87
2019-06-27T01:31:35.506Z,10.57
2019-06-27T01:34:04.925Z,9.70
2019-06-27T01:36:34.246Z,10.33
2019-06-27T01:39:03.654Z,9.53
2019-06-27T01:41:33.070Z,10.33
2019-06-27T01:44:02.693Z,9.60
2019-06-27T01:46:32.070Z,9.93
2019-06-27T01:49:01.440Z,9.60
2019-06-27T01:51:30.802Z,9.93
2019-06-27T01:54:00.155Z,9.43
2019-06-27T01:56:29.472Z,10.47
2019-06-27T01:58:58.799Z,10.30
2019-06-27T02:01:28.116Z,9.80
2019-06-27T02:03:57.499Z,9.20
2019-06-27T02:06:26.802Z,10.27
2019-06-27T02:08:56.124Z,10.30
2019-06-27T02:11:25.434Z,10.37
2019-06-27T02:13:54.743Z,9.90
2019-06-27T02:16:24.014Z,9.60
2019-06-27T02:18:53.419Z,10.23
2019-06-27T02:21:22.715Z,9.97
2019-06-27T02:23:52.072Z,10.57
2019-06-27T02:26:21.463Z,10.20
2019-06-27T02:28:50.833Z,9.87
2019-06-27T02:31:20.126Z,10.70
2019-06-27T02:33:49.463Z,9.67
2019-06-27T02:36:18.777Z,9.13
2019-06-27T02:38:48.160Z,9.70
2019-06-27T02:41:17.558Z,10.03
2019-06-27T02:43:46.875Z,9.70
2019-06-27T02:46:16.220Z,10.07
2019-06-27T02:48:45.546Z,9.83
2019-06-27T02:51:14.860Z,10.97
2019-06-27T02:53:44.218Z,10.47
2019-06-27T02:56:13.560Z,10.33
2019-06-27T02:58:42.934Z,10.33
2019-06-27T03:01:12.256Z,10.73
2019-06-27T03:03:44.625Z,11.07
2019-06-27T03:06:14.019Z,10.53
2019-06-27T03:08:43.391Z,9.80
2019-06-27T03:11:12.804Z,9.97
2019-06-27T03:13:42.167Z,9.33
2019-06-27T03:16:11.537Z,9.80
2019-06-27T03:18:40.938Z,9.53
2019-06-27T03:21:10.247Z,10.23
2019-06-27T03:23:39.841Z,9.40
2019-06-27T03:26:09.388Z,9.53
2019-06-27T03:28:52.172Z,9.60
2019-06-27T03:31:09.784Z,9.63
2019-06-27T03:33:39.145Z,9.40
2019-06-27T03:36:08.582Z,10.07
2019-06-27T03:38:37.975Z,9.43
2019-06-27T03:41:08.419Z,9.87
2019-06-27T03:43:37.885Z,9.73
2019-06-27T03:46:07.168Z,9.77
2019-06-27T03:48:36.505Z,9.77
2019-06-27T03:51:05.891Z,10.17
2019-06-27T03:53:35.177Z,10.67
2019-06-27T03:56:04.558Z,11.77
2019-06-27T03:58:33.881Z,9.37
2019-06-27T04:01:05.667Z,10.17
2019-06-27T04:03:34.997Z,9.73
2019-06-27T04:06:04.478Z,10.10
2019-06-27T04:08:33.987Z,10.07
2019-06-27T04:11:03.710Z,10.00
2019-06-27T04:13:33.046Z,9.93
2019-06-27T04:16:02.378Z,10.20
2019-06-27T04:18:31.726Z,10.23
2019-06-27T04:21:01.076Z,13.00
2019-06-27T04:23:30.495Z,11.67
2019-06-27T04:25:59.800Z,11.37
2019-06-27T04:28:29.207Z,11.00
2019-06-27T04:30:58.613Z,10.83
2019-06-27T04:33:27.900Z,10.77
2019-06-27T04:35:57.170Z,9.80
2019-06-27T04:38:26.627Z,10.50
2019-06-27T04:40:55.930Z,10.03
2019-06-27T04:43:25.413Z,10.70
2019-06-27T04:45:54.807Z,10.80
2019-06-27T04:48:24.090Z,10.87
2019-06-27T04:50:53.402Z,11.53
2019-06-27T04:53:22.693Z,10.40
2019-06-27T04:55:52.053Z,10.77
2019-06-27T04:58:21.372Z,11.03
2019-06-27T05:00:50.674Z,11.53
2019-06-27T05:03:20.001Z,12.70
2019-06-27T05:05:49.411Z,12.97
2019-06-27T05:08:18.722Z,12.47
2019-06-27T05:10:48.111Z,14.33
2019-06-27T05:13:17.519Z,15.17
2019-06-27T05:15:46.831Z,16.77
2019-06-27T05:18:16.116Z,17.73
2019-06-27T05:20:45.510Z,16.57
2019-06-27T05:23:14.797Z,18.97
2019-06-27T05:25:44.140Z,18.00
2019-06-27T05:28:13.560Z,17.33
2019-06-27T05:30:42.886Z,14.47
2019-06-27T05:33:12.182Z,12.07
2019-06-27T05:35:41.801Z,11.93
2019-06-27T05:38:11.093Z,11.83
2019-06-27T05:40:40.367Z,13.57
2019-06-27T05:43:09.706Z,13.30
2019-06-27T05:45:39.028Z,13.10
2019-06-27T05:48:08.418Z,14.43
2019-06-27T05:50:37.789Z,14.33
2019-06-27T05:53:07.077Z,15.37
2019-06-27T05:55:36.375Z,13.90
2019-06-27T05:58:05.757Z,14.40
2019-06-27T06:00:35.130Z,12.90
2019-06-27T06:03:04.433Z,14.47
2019-06-27T06:05:33.814Z,13.60
2019-06-27T06:08:03.135Z,13.20
2019-06-27T06:10:32.511Z,12.33
2019-06-27T06:13:01.851Z,13.87
2019-06-27T06:15:31.332Z,13.30
2019-06-27T06:18:00.682Z,14.30
2019-06-27T06:20:30.301Z,13.77
2019-06-27T06:22:59.746Z,12.23
2019-06-27T06:25:29.063Z,12.63
2019-06-27T06:27:58.465Z,11.63
2019-06-27T06:30:43.084Z,12.10
2019-06-27T06:32:58.922Z,11.07
2019-06-27T06:35:28.260Z,12.03
2019-06-27T06:37:57.572Z,11.53
2019-06-27T06:40:26.940Z,12.00
2019-06-27T06:43:00.303Z,11.27
2019-06-27T06:45:27.365Z,11.23
2019-06-27T06:47:56.651Z,11.43
2019-06-27T06:50:26.059Z,10.70
2019-06-27T06:52:55.343Z,11.23
2019-06-27T06:55:24.620Z,10.70
2019-06-27T06:57:53.981Z,11.40
2019-06-27T07:00:24.798Z,11.23
2019-06-27T07:02:54.114Z,11.30
2019-06-27T07:05:23.545Z,12.00
2019-06-27T07:07:52.827Z,12.47
2019-06-27T07:10:22.120Z,11.60
2019-06-27T07:12:52.459Z,11.97
2019-06-27T07:15:21.739Z,11.97
2019-06-27T07:17:51.051Z,12.23
2019-06-27T07:20:20.361Z,11.93
2019-06-27T07:22:49.723Z,12.07
2019-06-27T07:25:19.131Z,12.57
2019-06-27T07:27:48.486Z,11.60
2019-06-27T07:30:17.820Z,12.70
2019-06-27T07:32:47.170Z,12.87
2019-06-27T07:35:16.589Z,12.07
2019-06-27T07:37:45.950Z,12.03
2019-06-27T07:40:15.279Z,12.67
2019-06-27T07:43:03.757Z,11.67
2019-06-27T07:45:33.376Z,11.80
2019-06-27T07:48:02.807Z,12.03
2019-06-27T07:50:32.097Z,11.83
2019-06-27T07:53:01.533Z,11.93
2019-06-27T07:55:30.926Z,11.53
2019-06-27T07:58:00.256Z,12.10
2019-06-27T08:00:29.796Z,11.63
2019-06-27T08:02:59.082Z,12.07
2019-06-27T08:05:28.440Z,11.87
2019-06-27T08:07:57.815Z,12.07
2019-06-27T08:10:27.178Z,12.50
2019-06-27T08:12:56.509Z,11.83
2019-06-27T08:15:26.040Z,12.23
2019-06-27T08:17:55.343Z,11.93
2019-06-27T08:20:24.681Z,13.43
2019-06-27T08:22:53.971Z,11.83
2019-06-27T08:25:23.268Z,12.30
2019-06-27T08:27:52.701Z,12.13
2019-06-27T08:30:22.107Z,12.13
2019-06-27T08:32:51.425Z,12.13
2019-06-27T08:35:20.758Z,12.13
2019-06-27T08:37:50.053Z,12.73
2019-06-27T08:40:20.487Z,12.63
2019-06-27T08:42:49.909Z,12.83
2019-06-27T08:45:19.421Z,13.00
2019-06-27T08:47:48.750Z,13.30
2019-06-27T08:50:18.145Z,13.03
2019-06-27T08:52:47.438Z,12.33
2019-06-27T08:55:16.802Z,12.90
2019-06-27T08:57:46.116Z,13.10
2019-06-27T09:00:15.801Z,12.53
2019-06-27T09:02:45.100Z,12.10
2019-06-27T09:05:14.809Z,12.60
2019-06-27T09:07:44.087Z,12.77
2019-06-27T09:10:13.990Z,13.10
2019-06-27T09:12:43.610Z,12.83
2019-06-27T09:15:13.287Z,12.77
2019-06-27T09:17:42.614Z,12.13
2019-06-27T09:20:12.894Z,12.53
2019-06-27T09:22:42.170Z,12.43
2019-06-27T09:25:12.355Z,12.30
2019-06-27T09:27:41.649Z,12.90
2019-06-27T09:30:11.542Z,12.63
2019-06-27T09:32:40.864Z,12.70
2019-06-27T09:35:10.373Z,12.60
2019-06-27T09:37:39.771Z,12.40
2019-06-27T09:40:09.671Z,12.23
2019-06-27T09:42:39.069Z,13.20
2019-06-27T09:45:09.412Z,11.83
2019-06-27T09:47:38.754Z,11.97
2019-06-27T09:50:09.570Z,12.10
2019-06-27T09:52:39.020Z,11.53
2019-06-27T09:55:08.534Z,12.07
2019-06-27T09:57:38.031Z,11.73
2019-06-27T10:00:08.059Z,11.50
2019-06-27T10:02:41.499Z,12.47
2019-06-27T10:05:08.702Z,12.63
2019-06-27T10:07:38.258Z,11.57
2019-06-27T10:10:08.317Z,11.90
2019-06-27T10:12:42.714Z,11.47
2019-06-27T10:15:09.943Z,11.80
2019-06-27T10:17:39.277Z,11.93
2019-06-27T10:20:10.094Z,11.03
2019-06-27T10:22:39.518Z,11.07
2019-06-27T10:25:08.921Z,11.77
2019-06-27T10:27:38.214Z,11.97
2019-06-27T10:30:08.708Z,10.97
2019-06-27T10:32:38.089Z,11.50
2019-06-27T10:35:07.903Z,11.30
2019-06-27T10:37:37.377Z,11.17
2019-06-27T10:40:07.028Z,11.63
2019-06-27T10:42:36.442Z,11.30
2019-06-27T10:45:06.190Z,11.53
2019-06-27T10:47:35.618Z,11.17
2019-06-27T10:50:04.927Z,11.10
2019-06-27T10:52:34.368Z,11.30
2019-06-27T10:55:03.910Z,10.70
2019-06-27T10:57:33.216Z,10.93
2019-06-27T11:00:02.591Z,11.77
2019-06-27T11:02:32.038Z,11.00
2019-06-27T11:05:01.522Z,10.83
2019-06-27T11:07:31.067Z,11.30
2019-06-27T11:10:00.391Z,10.90
2019-06-27T11:12:29.794Z,10.63
2019-06-27T11:14:59.919Z,9.87
2019-06-27T11:17:29.464Z,10.70
2019-06-27T11:19:58.765Z,10.27
2019-06-27T11:22:28.055Z,10.47
2019-06-27T11:24:57.371Z,10.83
2019-06-27T11:27:27.485Z,9.83
2019-06-27T11:29:57.025Z,10.80
2019-06-27T11:32:26.320Z,10.77
2019-06-27T11:34:55.811Z,11.17
2019-06-27T11:37:25.314Z,10.27
2019-06-27T11:39:54.653Z,10.77
2019-06-27T11:42:24.037Z,11.60
2019-06-27T11:44:53.406Z,11.50
2019-06-27T11:47:22.729Z,11.67
2019-06-27T11:49:52.622Z,11.30
2019-06-27T11:52:25.990Z,11.47
2019-06-27T11:54:52.967Z,8.50
2019-06-27T11:57:22.383Z,8.33
2019-06-27T11:59:51.694Z,7.87
2019-06-27T12:02:21.021Z,8.27
2019-06-27T12:04:50.397Z,7.67
2019-06-27T12:07:19.734Z,7.17
2019-06-27T12:09:49.039Z,7.37
2019-06-27T12:12:18.392Z,7.23
2019-06-27T12:14:47.808Z,6.77
2019-06-27T12:17:17.093Z,9.20
2019-06-27T12:19:46.427Z,7.80
2019-06-27T12:22:15.714Z,9.30
2019-06-27T12:24:45.131Z,11.20
2019-06-27T12:27:14.513Z,11.03
2019-06-27T12:29:43.843Z,12.03
2019-06-27T12:32:13.162Z,11.87
2019-06-27T12:34:42.613Z,11.63
2019-06-27T12:37:11.930Z,11.83
2019-06-27T12:39:41.234Z,11.17
2019-06-27T12:42:10.570Z,10.53
2019-06-27T12:44:39.868Z,11.43
2019-06-27T12:47:09.215Z,12.33
2019-06-27T12:49:56.944Z,11.93
2019-06-27T12:52:09.605Z,10.87
2019-06-27T12:54:38.929Z,10.57
2019-06-27T12:57:08.273Z,12.27
2019-06-27T12:59:37.660Z,11.43
2019-06-27T13:02:07.014Z,12.17
2019-06-27T13:04:36.357Z,13.03
2019-06-27T13:07:05.635Z,12.80
2019-06-27T13:09:35.068Z,11.87
2019-06-27T13:12:04.731Z,11.70
2019-06-27T13:14:34.059Z,11.83
2019-06-27T13:17:03.379Z,10.03
2019-06-27T13:19:33.017Z,11.00
2019-06-27T13:22:02.307Z,8.70
2019-06-27T13:24:31.649Z,9.33
2019-06-27T13:27:00.950Z,8.73
2019-06-27T13:29:30.266Z,7.20
2019-06-27T13:31:59.641Z,7.47
2019-06-27T13:34:40.087Z,6.67
2019-06-27T13:37:00.026Z,6.73
2019-06-27T13:39:29.337Z,6.80
2019-06-27T13:41:58.635Z,6.47
2019-06-27T13:44:28.011Z,5.90
2019-06-27T13:46:57.369Z,6.10
2019-06-27T13:49:26.730Z,6.57
2019-06-27T13:51:56.060Z,5.90
2019-06-27T13:54:25.342Z,5.87
2019-06-27T13:56:54.719Z,6.00
2019-06-27T13:59:24.034Z,6.23
2019-06-27T14:01:53.305Z,6.73
2019-06-27T14:04:24.411Z,7.10
2019-06-27T14:06:53.630Z,7.17
2019-06-27T14:09:23.973Z,7.00
2019-06-27T14:11:53.401Z,6.73
2019-06-27T14:14:22.729Z,7.00
2019-06-27T14:16:52.018Z,7.07
2019-06-27T14:19:21.295Z,7.17
2019-06-27T14:21:50.862Z,7.27
2019-06-27T14:24:20.447Z,7.27
2019-06-27T14:26:50.589Z,8.03
2019-06-27T14:29:19.906Z,7.20
2019-06-27T14:31:49.315Z,7.50
2019-06-27T14:34:18.787Z,7.73
2019-06-27T14:36:48.272Z,7.83
2019-06-27T14:39:17.662Z,7.17
2019-06-27T14:41:47.017Z,8.50
2019-06-27T14:44:16.318Z,8.77
2019-06-27T14:46:45.609Z,9.77
2019-06-27T14:49:15.091Z,10.50
2019-06-27T14:51:44.436Z,10.63
2019-06-27T14:54:13.726Z,12.63
2019-06-27T14:56:42.993Z,13.10
2019-06-27T14:59:14.495Z,12.63
2019-06-27T15:01:43.514Z,11.27
2019-06-27T15:04:12.896Z,11.67
2019-06-27T15:06:43.249Z,11.87
2019-06-27T15:09:12.659Z,10.23
2019-06-27T15:11:41.934Z,9.70
2019-06-27T15:14:11.240Z,9.03
2019-06-27T15:16:40.616Z,10.63
2019-06-27T15:19:09.992Z,10.20
2019-06-27T15:21:39.288Z,9.73
2019-06-27T15:24:08.610Z,10.03
2019-06-27T15:26:38.097Z,9.70
2019-06-27T15:29:07.406Z,10.57
2019-06-27T15:31:36.826Z,10.37
2019-06-27T15:34:06.101Z,10.17
2019-06-27T15:36:35.534Z,10.20
2019-06-27T15:39:05.773Z,9.90
2019-06-27T15:41:35.130Z,9.57
2019-06-27T15:44:04.418Z,8.67
2019-06-27T15:46:33.805Z,7.10
2019-06-27T15:49:03.092Z,7.60
2019-06-27T15:51:32.441Z,6.73
2019-06-27T15:54:01.785Z,6.03
2019-06-27T15:56:31.169Z,6.37
2019-06-27T15:59:03.609Z,6.30
2019-06-27T16:01:31.757Z,5.93
2019-06-27T16:04:01.032Z,5.90
2019-06-27T16:06:30.310Z,6.47
2019-06-27T16:08:59.638Z,6.90
2019-06-27T16:11:29.030Z,6.67
2019-06-27T16:13:58.425Z,6.80
2019-06-27T16:16:27.888Z,6.80
2019-06-27T16:18:57.166Z,6.77
2019-06-27T16:21:26.442Z,7.10
2019-06-27T16:23:55.858Z,7.23
2019-06-27T16:26:25.178Z,6.83
2019-06-27T16:28:54.499Z,7.90
2019-06-27T16:31:23.882Z,7.80
2019-06-27T16:33:53.339Z,7.10
2019-06-27T16:36:25.748Z,7.53
2019-06-27T16:38:53.762Z,7.37
2019-06-27T16:41:23.085Z,7.30
2019-06-27T16:43:52.654Z,7.20
2019-06-27T16:46:22.103Z,12.97
2019-06-27T16:48:51.405Z,19.00
2019-06-27T16:51:20.870Z,24.47
2019-06-27T16:53:50.293Z,20.03
2019-06-27T16:56:19.594Z,19.45
2019-06-27T16:58:49.810Z,17.37
2019-06-27T17:01:19.304Z,13.08
2019-06-27T17:03:48.825Z,12.05
2019-06-27T17:06:18.343Z,12.78
2019-06-27T17:08:47.776Z,12.63
2019-06-27T17:11:17.208Z,13.50
2019-06-27T17:13:46.497Z,14.30
2019-06-27T17:16:15.837Z,15.00
2019-06-27T17:18:45.233Z,14.23
2019-06-27T17:21:14.602Z,19.23
2019-06-27T17:23:43.921Z,20.83
2019-06-27T17:26:13.332Z,20.60
2019-06-27T17:28:42.720Z,18.40
2019-06-27T17:31:12.189Z,21.77
2019-06-27T17:33:41.562Z,21.53
2019-06-27T17:36:10.866Z,22.23
2019-06-27T17:38:40.270Z,25.27
2019-06-27T17:41:09.553Z,21.07
2019-06-27T17:43:41.355Z,18.93
2019-06-27T17:46:09.963Z,14.47
2019-06-27T17:48:39.245Z,12.63
2019-06-27T17:51:08.616Z,12.60
2019-06-27T17:53:37.937Z,12.47
2019-06-27T17:56:07.209Z,10.10
2019-06-27T17:58:36.493Z,12.07
2019-06-27T18:01:05.815Z,11.20
2019-06-27T18:03:35.104Z,12.03
2019-06-27T18:06:04.408Z,11.57
2019-06-27T18:08:33.785Z,11.50
2019-06-27T18:11:03.112Z,10.87
2019-06-27T18:13:32.420Z,11.13
2019-06-27T18:16:01.816Z,10.50
2019-06-27T18:18:31.232Z,10.37
2019-06-27T18:21:00.732Z,10.17
2019-06-27T18:23:30.186Z,10.63
2019-06-27T18:25:59.479Z,10.60
2019-06-27T18:28:28.781Z,10.73
2019-06-27T18:30:58.179Z,11.53
2019-06-27T18:33:27.658Z,11.53
2019-06-27T18:35:56.949Z,11.27
2019-06-27T18:38:26.265Z,11.90
2019-06-27T18:40:55.582Z,10.87
2019-06-27T18:43:24.975Z,11.80
2019-06-27T18:45:54.270Z,10.80
2019-06-27T18:48:23.584Z,10.60
2019-06-27T18:50:52.877Z,10.57
2019-06-27T18:53:22.574Z,10.87
2019-06-27T18:55:51.947Z,10.97
2019-06-27T18:58:21.333Z,10.90
2019-06-27T19:00:50.634Z,11.27
2019-06-27T19:03:19.941Z,11.77
2019-06-27T19:05:49.300Z,11.70
2019-06-27T19:08:18.664Z,12.40
2019-06-27T19:10:48.040Z,11.77
2019-06-27T19:13:17.334Z,11.50
2019-06-27T19:15:46.967Z,13.47
2019-06-27T19:18:53.652Z,12.80
2019-06-27T19:21:34.404Z,12.13
2019-06-27T19:24:25.290Z,11.47
2019-06-27T19:26:55.859Z,10.33
2019-06-27T19:29:26.000Z,11.30
2019-06-27T19:31:55.581Z,10.40
2019-06-27T19:34:24.981Z,9.87
2019-06-27T19:36:54.284Z,10.73
2019-06-27T19:39:23.693Z,11.63
2019-06-27T19:41:53.009Z,12.17
2019-06-27T19:44:41.455Z,11.70
2019-06-27T19:47:10.741Z,12.77
2019-06-27T19:49:40.125Z,12.20
2019-06-27T19:52:09.470Z,11.37
2019-06-27T19:54:38.746Z,8.60
2019-06-27T19:57:08.022Z,5.90
2019-06-27T19:59:37.334Z,5.53
2019-06-27T20:02:06.710Z,5.03
2019-06-27T20:04:36.060Z,4.80
2019-06-27T20:07:05.378Z,4.90
2019-06-27T20:09:34.654Z,4.53
2019-06-27T20:12:03.926Z,3.90
2019-06-27T20:14:33.221Z,4.20
2019-06-27T20:17:02.497Z,3.73
2019-06-27T20:19:31.849Z,4.10
2019-06-27T20:22:01.829Z,3.37
2019-06-27T20:24:31.165Z,3.60
2019-06-27T20:27:00.481Z,3.00
2019-06-27T20:29:30.832Z,2.90
2019-06-27T20:32:00.310Z,2.90
2019-06-27T20:34:29.628Z,2.70
2019-06-27T20:36:59.087Z,2.43
2019-06-27T20:39:28.538Z,1.80
2019-06-27T20:41:57.850Z,1.87
2019-06-27T20:44:27.640Z,2.17
2019-06-27T20:46:57.012Z,1.53
2019-06-27T20:49:26.442Z,1.57
2019-06-27T20:51:55.990Z,1.60
2019-06-27T20:54:25.377Z,1.30
2019-06-27T20:56:54.842Z,1.50
2019-06-27T20:59:24.170Z,2.07
2019-06-27T21:01:53.475Z,1.40
2019-06-27T21:04:23.068Z,1.37
2019-06-27T21:06:52.382Z,1.60
2019-06-27T21:09:21.824Z,1.83
2019-06-27T21:11:51.105Z,1.60
2019-06-27T21:14:20.461Z,1.63
2019-06-27T21:16:49.737Z,1.67
2019-06-27T21:19:19.034Z,1.83
2019-06-27T21:21:48.343Z,1.60
2019-06-27T21:24:17.626Z,1.47
2019-06-27T21:26:46.970Z,1.90
2019-06-27T21:29:17.202Z,1.60
2019-06-27T21:31:51.350Z,1.73
2019-06-27T21:34:20.650Z,1.80
2019-06-27T21:36:50.011Z,1.97
2019-06-27T21:39:19.540Z,2.30
2019-06-27T21:41:48.917Z,1.50
2019-06-27T21:44:18.580Z,1.77
2019-06-27T21:46:47.930Z,1.60
2019-06-27T21:49:17.237Z,1.57
2019-06-27T21:51:46.627Z,1.27
2019-06-27T21:54:15.967Z,1.80
2019-06-27T21:56:45.268Z,1.80
2019-06-27T21:59:14.545Z,1.43
2019-06-27T22:01:43.942Z,1.80
2019-06-27T22:04:13.483Z,2.30
2019-06-27T22:06:42.829Z,2.80
2019-06-27T22:09:23.879Z,1.60
2019-06-27T22:11:43.530Z,1.47
2019-06-27T22:14:12.830Z,1.30
2019-06-27T22:16:42.175Z,1.60
2019-06-27T22:19:11.448Z,2.37
2019-06-27T22:21:40.752Z,1.37
2019-06-27T22:24:10.027Z,3.23
2019-06-27T22:26:39.304Z,4.67
2019-06-27T22:29:08.763Z,2.00
2019-06-27T22:31:38.231Z,1.60
2019-06-27T22:34:07.583Z,1.40
2019-06-27T22:36:36.965Z,1.43
2019-06-27T22:39:39.511Z,1.10
2019-06-27T22:42:13.247Z,1.30
2019-06-27T22:45:00.446Z,1.30
2019-06-27T22:47:47.903Z,1.30
2019-06-27T22:50:36.854Z,1.30
2019-06-27T22:53:09.653Z,1.20
2019-06-27T22:55:39.344Z,1.20
2019-06-27T22:58:08.909Z,1.13
2019-06-27T23:00:38.319Z,1.03
2019-06-27T23:03:07.718Z,2.23
2019-06-27T23:05:37.038Z,1.93
2019-06-27T23:08:06.383Z,1.20
2019-06-27T23:10:35.762Z,1.37
2019-06-27T23:13:05.118Z,1.30
2019-06-27T23:15:34.505Z,1.03
2019-06-27T23:18:03.795Z,1.50
2019-06-27T23:20:33.166Z,1.40
2019-06-27T23:23:02.475Z,1.67
2019-06-27T23:25:31.761Z,1.40
2019-06-27T23:28:01.080Z,1.63
2019-06-27T23:30:30.499Z,1.30
2019-06-27T23:32:59.845Z,1.37
2019-06-27T23:35:29.171Z,1.33
2019-06-27T23:37:58.685Z,1.60
2019-06-27T23:40:27.969Z,1.53
2019-06-27T23:42:57.253Z,1.80
2019-06-27T23:45:26.650Z,2.17
2019-06-27T23:47:55.934Z,1.80
2019-06-27T23:50:25.249Z,1.20
2019-06-27T23:52:54.908Z,1.37
2019-06-27T23:55:24.277Z,1.30
2019-06-27T23:57:53.548Z,1.53
